Time;durP1;ratioP1;P1;durP2;ratioP2;P2;SDS_P1;SDS_P2;PMS_P1;PMS_P2;Temp;Humidity;BMP_temperature;BMP_pressure;BME280_temperature;BME280_humidity;BME280_pressure;Samples;Min_cycle;Max_cycle;Signal;HPM_P1;HPM_P2
2023/06/05 00:01:45;;;;;;;;;2.00;2.00;;;;;27.49;31.37;101880.34;6305304;22;45367;-74
2023/06/05 00:04:11;;;;;;;;;2.00;2.00;;;;;27.49;31.25;101881.16;6305324;22;46096;-73
2023/06/05 00:06:37;;;;;;;;;1.00;1.00;;;;;27.46;31.37;101873.53;6305234;22;45443;-73
2023/06/05 00:09:06;;;;;;;;;2.00;2.00;;;;;27.47;31.85;101874.34;6304770;22;45276;-74
2023/06/05 00:11:32;;;;;;;;;3.00;2.00;;;;;27.48;31.58;101876.03;6304621;22;45233;-74
2023/06/05 00:13:57;;;;;;;;;1.67;1.67;;;;;27.49;31.08;101872.31;6304975;22;45872;-74
2023/06/05 00:16:22;;;;;;;;;2.00;2.00;;;;;27.39;31.09;101861.97;6303381;22;45303;-74
2023/06/05 00:18:48;;;;;;;;;1.33;1.33;;;;;27.49;31.63;101875.81;6305651;22;45297;-74
2023/06/05 00:21:13;;;;;;;;;2.33;2.33;;;;;27.44;31.45;101867.56;6304803;22;45457;-73
2023/06/05 00:23:39;;;;;;;;;3.00;1.00;;;;;27.45;31.10;101868.38;6304768;22;46531;-74
2023/06/05 00:26:04;;;;;;;;;1.33;1.33;;;;;27.37;31.80;101853.31;6304274;22;45279;-72
2023/06/05 00:28:30;;;;;;;;;2.00;2.00;;;;;27.49;31.32;101872.31;6304675;22;45439;-74
2023/06/05 00:30:55;;;;;;;;;1.00;1.00;;;;;27.45;31.63;101865.72;6305416;22;45310;-73
2023/06/05 00:33:20;;;;;;;;;2.67;2.33;;;;;27.38;31.19;101858.47;6304322;22;45589;-73
2023/06/05 00:35:46;;;;;;;;;1.00;1.00;;;;;27.40;31.56;101856.41;6304823;22;45302;-74
2023/06/05 00:38:11;;;;;;;;;2.00;2.00;;;;;27.41;31.64;101859.91;6305575;22;45265;-74
2023/06/05 00:40:36;;;;;;;;;3.00;2.00;;;;;27.43;31.13;101862.41;6304705;22;45413;-74
2023/06/05 00:43:02;;;;;;;;;3.00;1.00;;;;;27.42;31.80;101861.59;6304990;22;49069;-74
2023/06/05 00:45:28;;;;;;;;;2.67;1.33;;;;;27.46;31.38;101862.00;6305115;22;45272;-73
2023/06/05 00:47:54;;;;;;;;;1.00;1.00;;;;;27.46;31.21;101859.34;6305279;22;45332;-74
2023/06/05 00:50:21;;;;;;;;;2.00;2.00;;;;;27.47;31.02;101867.19;6304697;22;45338;-73
2023/06/05 00:52:49;;;;;;;;;2.00;2.00;;;;;27.45;31.06;101866.53;6304245;22;45389;-74
2023/06/05 00:55:14;;;;;;;;;3.67;2.67;;;;;27.38;31.85;101853.09;6304118;22;45259;-74
2023/06/05 00:57:39;;;;;;;;;1.67;1.67;;;;;27.43;31.62;101859.75;6304767;22;45311;-74
2023/06/05 01:00:08;;;;;;;;;2.00;2.00;;;;;27.44;31.59;101861.38;6305308;22;45474;-74
2023/06/05 01:02:37;;;;;;;;;2.00;1.33;;;;;27.43;31.18;101859.75;6304676;22;46673;-74
2023/06/05 01:05:03;;;;;;;;;2.00;2.00;;;;;27.40;31.51;101858.28;6304235;22;45162;-74
2023/06/05 01:07:32;;;;;;;;;2.00;2.00;;;;;27.38;31.15;101858.47;6304716;22;45275;-74
2023/06/05 01:10:03;;;;;;;;;2.00;2.00;;;;;27.42;31.64;101864.25;6304273;22;45357;-74
2023/06/05 01:12:57;;;;;;;;;2.00;2.00;;;;;27.44;31.18;101861.38;6302785;22;47122;-74
2023/06/05 01:15:28;;;;;;;;;2.33;2.33;;;;;27.43;31.01;101863.22;6304677;22;45260;-74
2023/06/05 01:17:56;;;;;;;;;2.00;2.00;;;;;27.34;31.94;101859.88;6304675;22;45290;-74
2023/06/05 01:20:21;;;;;;;;;2.33;2.33;;;;;27.36;31.08;101857.00;6304467;22;45363;-73
2023/06/05 01:22:52;;;;;;;;;2.67;2.67;;;;;27.43;31.78;101865.09;6304461;22;45671;-74
2023/06/05 01:25:18;;;;;;;;;1.00;1.00;;;;;27.42;31.20;101858.91;6304294;22;45340;-74
2023/06/05 01:27:53;;;;;;;;;3.00;2.00;;;;;27.42;31.81;101864.25;6305160;22;45270;-74
2023/06/05 01:30:28;;;;;;;;;2.33;2.00;;;;;27.41;31.36;101857.25;6305027;22;45475;-74
2023/06/05 01:33:02;;;;;;;;;2.00;2.00;;;;;27.40;31.63;101859.09;6304720;22;45214;-74
2023/06/05 01:35:32;;;;;;;;;2.67;1.00;;;;;27.42;31.04;101856.25;6304834;22;45328;-73
2023/06/05 01:37:59;;;;;;;;;1.33;1.00;;;;;27.38;31.65;101860.28;6304222;22;45489;-74
2023/06/05 01:40:26;;;;;;;;;1.00;1.00;;;;;27.37;31.75;101853.31;6304590;22;45301;-74
2023/06/05 01:42:53;;;;;;;;;0.00;0.00;;;;;27.43;31.80;101862.41;6304152;22;47298;-73
2023/06/05 01:45:19;;;;;;;;;3.33;2.00;;;;;27.43;31.70;101857.88;6304260;22;45268;-73
2023/06/05 01:47:48;;;;;;;;;1.67;1.00;;;;;27.42;31.68;101853.56;6304141;22;45332;-74
2023/06/05 01:50:14;;;;;;;;;1.00;1.00;;;;;27.37;31.48;101834.63;6304614;22;45384;-74
2023/06/05 01:52:41;;;;;;;;;1.00;1.00;;;;;27.42;31.76;101844.72;6303750;22;45547;-74
2023/06/05 01:55:14;;;;;;;;;4.33;1.00;;;;;27.37;31.22;101832.78;6304342;22;45376;-74
2023/06/05 01:57:43;;;;;;;;;3.00;1.67;;;;;27.40;31.18;101836.91;6304521;22;45180;-74
2023/06/05 02:00:12;;;;;;;;;1.00;1.00;;;;;27.34;31.79;101827.81;6304507;22;45411;-73
2023/06/05 02:02:48;;;;;;;;;2.00;2.00;;;;;27.37;31.14;101823.94;6304228;22;46132;-74
2023/06/05 02:05:15;;;;;;;;;2.00;2.00;;;;;27.42;31.66;101834.84;6304230;22;45249;-73
2023/06/05 02:07:49;;;;;;;;;2.33;1.00;;;;;27.42;31.34;101837.53;6304231;22;45276;-74
2023/06/05 02:10:15;;;;;;;;;4.00;2.00;;;;;27.35;31.30;101820.63;6304704;22;45325;-74
2023/06/05 02:12:42;;;;;;;;;2.33;2.00;;;;;27.35;31.17;101825.97;6303992;22;46383;-74
2023/06/05 02:15:12;;;;;;;;;1.00;1.00;;;;;27.37;31.34;101827.44;6304272;22;45322;-74
2023/06/05 02:17:38;;;;;;;;;2.67;2.00;;;;;27.35;31.74;101825.97;6304253;22;45277;-74
2023/06/05 02:20:04;;;;;;;;;1.67;1.67;;;;;27.38;31.17;101830.91;6302853;22;45278;-74
2023/06/05 02:22:30;;;;;;;;;3.00;2.00;;;;;27.37;31.17;101830.09;6303732;22;45398;-73
2023/06/05 02:24:55;;;;;;;;;1.00;1.00;;;;;27.36;31.35;101824.94;6302408;22;45331;-74
2023/06/05 02:27:24;;;;;;;;;2.67;1.67;;;;;27.34;31.13;101821.63;6304308;22;45228;-73
2023/06/05 02:29:50;;;;;;;;;1.67;1.67;;;;;27.33;31.82;101823.47;6304194;22;45394;-74
2023/06/05 02:32:15;;;;;;;;;2.00;2.00;;;;;27.36;31.51;101828.44;6304030;22;46970;-74
2023/06/05 02:34:41;;;;;;;;;2.33;2.00;;;;;27.39;31.74;101829.91;6303795;22;45146;-74
2023/06/05 02:37:06;;;;;;;;;1.33;1.00;;;;;27.39;31.26;101835.25;6304219;22;45285;-73
2023/06/05 02:39:33;;;;;;;;;1.00;1.00;;;;;27.36;31.58;101836.44;6304295;22;45373;-73
2023/06/05 02:41:58;;;;;;;;;2.00;2.00;;;;;27.36;31.10;101831.09;6303884;22;46517;-74
2023/06/05 02:44:24;;;;;;;;;1.67;1.67;;;;;27.22;31.79;101814.13;6302281;22;45322;-74
2023/06/05 02:46:49;;;;;;;;;2.00;2.00;;;;;27.34;31.73;101824.31;6304728;22;45327;-74
2023/06/05 02:49:14;;;;;;;;;3.67;2.33;;;;;27.39;31.71;101843.25;6304312;22;45236;-73
2023/06/05 02:51:39;;;;;;;;;0.67;0.67;;;;;27.29;31.31;101815.03;6304006;22;46288;-74
2023/06/05 02:54:05;;;;;;;;;2.00;2.00;;;;;27.35;31.13;101826.78;6305704;22;45280;-74
2023/06/05 02:56:30;;;;;;;;;1.00;1.00;;;;;27.30;31.74;101818.50;6305475;22;45290;-74
2023/06/05 02:58:56;;;;;;;;;1.33;1.33;;;;;27.37;31.56;101829.25;6305922;22;45376;-74
2023/06/05 03:01:22;;;;;;;;;3.33;3.33;;;;;27.33;31.21;101817.28;6305187;22;46928;-74
2023/06/05 03:03:48;;;;;;;;;1.33;1.00;;;;;27.35;31.39;101816.09;6305141;22;45324;-73
2023/06/05 03:06:17;;;;;;;;;3.00;3.00;;;;;27.37;31.28;101810.56;6304971;22;45259;-73
2023/06/05 03:08:43;;;;;;;;;3.00;3.00;;;;;27.31;31.10;101801.47;6305324;22;45219;-74
2023/06/05 03:11:09;;;;;;;;;3.00;3.00;;;;;27.33;31.33;101807.44;6305425;22;46122;-74
2023/06/05 03:13:34;;;;;;;;;1.00;1.00;;;;;27.37;31.78;101813.22;6305330;22;45288;-74
2023/06/05 03:16:02;;;;;;;;;0.33;0.33;;;;;27.34;31.81;101808.28;6305748;22;45268;-73
2023/06/05 03:18:29;;;;;;;;;2.00;2.00;;;;;27.35;31.38;101810.75;6305230;22;45224;-74
2023/06/05 03:20:54;;;;;;;;;2.00;2.00;;;;;27.37;31.24;101818.56;6304839;22;45429;-73
2023/06/05 03:23:24;;;;;;;;;4.00;2.00;;;;;27.34;31.41;101809.09;6304922;22;45433;-74
2023/06/05 03:25:51;;;;;;;;;1.00;1.00;;;;;27.36;31.70;101824.94;6305504;22;45304;-73
2023/06/05 03:28:17;;;;;;;;;1.00;1.00;;;;;27.34;31.71;101818.97;6305195;22;45294;-74
2023/06/05 03:30:42;;;;;;;;;1.33;1.33;;;;;27.33;31.58;101810.13;6303306;22;47494;-73
2023/06/05 03:33:07;;;;;;;;;1.00;1.00;;;;;27.35;31.53;101817.94;6304697;22;45465;-73
2023/06/05 03:35:33;;;;;;;;;1.67;1.67;;;;;27.33;31.61;101812.78;6305382;22;45264;-74
2023/06/05 03:37:58;;;;;;;;;2.00;1.67;;;;;27.31;31.88;101820.16;6305229;22;45420;-73
2023/06/05 03:40:24;;;;;;;;;2.00;2.00;;;;;27.32;31.44;101813.81;6304758;22;47670;-74
2023/06/05 03:42:49;;;;;;;;;3.00;3.00;;;;;27.36;31.56;101819.59;6305048;22;45264;-73
2023/06/05 03:45:15;;;;;;;;;1.00;1.00;;;;;27.32;31.31;101811.16;6303308;22;45742;-74
2023/06/05 03:47:40;;;;;;;;;2.00;2.00;;;;;27.28;31.21;101802.69;6304561;22;45271;-74
2023/06/05 03:50:06;;;;;;;;;2.00;2.00;;;;;27.32;31.19;101815.66;6303398;22;45477;-74
2023/06/05 03:52:32;;;;;;;;;1.50;1.50;;;;;27.32;31.39;101815.66;6305671;22;45247;-73
2023/06/05 03:54:57;;;;;;;;;1.00;1.00;;;;;27.31;31.48;101817.50;6305423;22;45325;-74
2023/06/05 03:57:22;;;;;;;;;1.67;1.67;;;;;27.28;31.54;101805.34;6305068;22;45486;-74
2023/06/05 03:59:48;;;;;;;;;1.00;1.00;;;;;27.32;31.42;101813.00;6305325;22;45941;-73
2023/06/05 04:02:13;;;;;;;;;1.00;1.00;;;;;27.35;31.14;101820.63;6304456;22;45272;-74
2023/06/05 04:04:39;;;;;;;;;1.67;1.67;;;;;27.28;31.69;101797.34;6305419;22;45315;-73
2023/06/05 04:07:05;;;;;;;;;2.33;2.33;;;;;27.32;31.58;101810.31;6304997;22;45265;-73
2023/06/05 04:09:32;;;;;;;;;1.00;1.00;;;;;27.33;31.16;101811.94;6305248;22;45463;-74
2023/06/05 04:11:57;;;;;;;;;2.33;1.33;;;;;27.35;31.60;101809.94;6304728;22;45225;-73
2023/06/05 04:14:23;;;;;;;;;0.33;0.33;;;;;27.34;31.92;101813.63;6304844;22;45221;-74
2023/06/05 04:16:48;;;;;;;;;1.00;1.00;;;;;27.27;31.88;101811.69;6304666;22;45151;-73
2023/06/05 04:19:14;;;;;;;;;2.67;2.00;;;;;27.31;31.64;101811.31;6304533;22;46894;-74
2023/06/05 04:21:40;;;;;;;;;1.00;1.00;;;;;27.33;31.16;101814.63;6304846;22;45095;-73
2023/06/05 04:24:08;;;;;;;;;2.00;2.00;;;;;27.32;32.01;101816.50;6305052;22;45209;-73
2023/06/05 04:26:34;;;;;;;;;2.00;1.67;;;;;27.23;31.35;101799.75;6304426;22;45499;-73
2023/06/05 04:29:02;;;;;;;;;2.00;2.00;;;;;27.31;31.97;101822.84;6304639;22;45353;-74
2023/06/05 04:31:28;;;;;;;;;2.00;2.00;;;;;27.29;31.93;101819.53;6304144;22;45304;-74
2023/06/05 04:33:53;;;;;;;;;1.67;1.67;;;;;27.28;31.28;101818.72;6304660;22;45284;-73
2023/06/05 04:36:18;;;;;;;;;2.33;2.33;;;;;27.28;31.38;101820.56;6304567;22;45403;-73
2023/06/05 04:38:45;;;;;;;;;1.00;1.00;;;;;27.34;31.33;101821.63;6305107;22;46603;-73
2023/06/05 04:41:10;;;;;;;;;1.00;1.00;;;;;27.29;31.89;101814.19;6304729;22;45287;-74
2023/06/05 04:43:36;;;;;;;;;2.00;2.00;;;;;27.33;31.44;101814.63;6304663;22;45276;-74
2023/06/05 04:46:02;;;;;;;;;1.00;0.33;;;;;27.34;31.87;101816.28;6304401;22;45182;-73
2023/06/05 04:48:28;;;;;;;;;1.00;1.00;;;;;27.36;31.40;101831.09;6304785;22;47037;-73
2023/06/05 04:50:55;;;;;;;;;1.67;1.67;;;;;27.34;31.37;101827.81;6304428;22;45331;-74
2023/06/05 04:53:21;;;;;;;;;3.33;2.00;;;;;27.38;32.00;101838.91;6304277;22;45322;-74
2023/06/05 04:55:48;;;;;;;;;2.00;2.00;;;;;27.36;31.28;101833.78;6304963;22;45292;-73
2023/06/05 04:58:14;;;;;;;;;1.33;1.33;;;;;27.35;31.92;101834.78;6304700;22;45533;-74
2023/06/05 05:00:39;;;;;;;;;2.00;2.00;;;;;27.34;31.34;101830.47;6304155;22;45339;-73
2023/06/05 05:03:05;;;;;;;;;3.00;3.00;;;;;27.34;31.57;101833.16;6304422;22;45295;-74
2023/06/05 05:05:30;;;;;;;;;2.00;2.00;;;;;27.29;31.84;101822.22;6303149;22;45458;-74
2023/06/05 05:07:55;;;;;;;;;3.00;1.67;;;;;27.32;31.44;101826.34;6304839;22;46415;-73
2023/06/05 05:10:21;;;;;;;;;2.00;2.00;;;;;27.28;31.46;101817.88;6303147;22;45211;-73
2023/06/05 05:12:46;;;;;;;;;1.33;1.33;;;;;27.36;31.46;101833.78;6304681;22;45216;-74
2023/06/05 05:15:11;;;;;;;;;4.00;2.67;;;;;27.34;31.89;101826.97;6303899;22;45368;-74
2023/06/05 05:17:37;;;;;;;;;1.33;1.00;;;;;27.23;31.26;101810.44;6304305;22;45263;-73
2023/06/05 05:20:03;;;;;;;;;2.00;1.33;;;;;27.23;31.39;101810.44;6304495;22;45155;-75
2023/06/05 05:22:29;;;;;;;;;1.00;1.00;;;;;27.34;31.95;101829.66;6304704;22;45286;-75
2023/06/05 05:24:54;;;;;;;;;2.00;2.00;;;;;27.31;31.95;101822.84;6302841;22;45280;-71
2023/06/05 05:27:20;;;;;;;;;1.00;1.00;;;;;27.42;31.63;101845.53;6304712;22;46451;-72
2023/06/05 05:29:45;;;;;;;;;1.00;1.00;;;;;27.47;31.38;101843.13;6304420;22;45326;-72
2023/06/05 05:32:10;;;;;;;;;2.00;2.00;;;;;27.54;31.61;101850.34;6305242;22;45317;-72
2023/06/05 05:34:37;;;;;;;;;2.33;2.33;;;;;27.59;32.04;101843.41;6304213;22;45286;-72
2023/06/05 05:37:03;;;;;;;;;2.00;0.33;;;;;27.60;31.48;101836.22;6302901;22;45303;-72
2023/06/05 05:39:28;;;;;;;;;4.67;2.67;;;;;27.68;32.08;101845.94;6304411;22;45283;-72
2023/06/05 05:41:54;;;;;;;;;3.00;1.00;;;;;27.74;31.30;101843.31;6304101;22;45256;-72
2023/06/05 05:44:19;;;;;;;;;3.00;2.00;;;;;27.82;31.92;101844.19;6303976;22;45312;-74
2023/06/05 05:46:47;;;;;;;;;1.33;1.33;;;;;27.89;31.61;101844.25;6303283;22;45520;-74
2023/06/05 05:49:13;;;;;;;;;5.33;3.33;;;;;27.99;31.13;101849.25;6304291;22;45376;-74
2023/06/05 05:51:39;;;;;;;;;3.00;3.00;;;;;28.08;31.63;101856.06;6304828;22;45304;-74
2023/06/05 05:54:04;;;;;;;;;3.00;3.00;;;;;28.15;31.34;101856.97;6303926;22;45342;-72
2023/06/05 05:56:30;;;;;;;;;3.33;1.67;;;;;28.28;31.86;101844.66;6304189;22;45569;-73
2023/06/05 05:58:55;;;;;;;;;1.33;1.33;;;;;28.55;31.12;101849.34;6304125;22;45318;-73
2023/06/05 06:01:21;;;;;;;;;2.67;2.67;;;;;28.77;31.01;101841.16;6303833;22;45223;-72
2023/06/05 06:03:47;;;;;;;;;2.67;2.67;;;;;28.94;30.64;101847.78;6304197;22;45332;-74
2023/06/05 06:06:12;;;;;;;;;2.00;2.00;;;;;29.02;30.57;101844.06;6303497;22;46514;-74
2023/06/05 06:08:38;;;;;;;;;2.00;2.00;;;;;29.17;30.44;101851.13;6303919;22;45292;-73
2023/06/05 06:11:06;;;;;;;;;1.00;1.00;;;;;29.18;30.25;101842.06;6303753;22;45257;-74
2023/06/05 06:13:34;;;;;;;;;1.00;1.00;;;;;29.24;29.99;101854.66;6303932;22;45150;-76
2023/06/05 06:16:01;;;;;;;;;1.33;1.33;;;;;29.31;29.94;101860.00;6303854;22;46478;-75
2023/06/05 06:18:26;;;;;;;;;2.33;2.33;;;;;29.32;29.93;101847.44;6303985;22;45334;-73
2023/06/05 06:20:51;;;;;;;;;4.00;2.67;;;;;29.35;30.03;101857.75;6304466;22;45237;-74
2023/06/05 06:23:17;;;;;;;;;1.00;1.00;;;;;29.22;30.19;101839.81;6304356;22;45450;-74
2023/06/05 06:25:42;;;;;;;;;3.33;2.33;;;;;29.25;30.54;101855.47;6302991;22;46203;-73
2023/06/05 06:28:07;;;;;;;;;4.33;3.00;;;;;29.23;29.91;101858.34;6304189;22;45304;-73
2023/06/05 06:30:33;;;;;;;;;4.00;2.00;;;;;29.17;30.27;101851.13;6304086;22;45441;-73
2023/06/05 06:32:58;;;;;;;;;3.00;3.00;;;;;29.17;30.72;101851.13;6304770;22;45433;-74
2023/06/05 06:35:25;;;;;;;;;2.00;2.00;;;;;29.14;30.35;101843.50;6303771;22;45276;-74
2023/06/05 06:37:53;;;;;;;;;2.33;2.00;;;;;29.10;30.17;101844.94;6304417;22;45365;-74
2023/06/05 06:40:19;;;;;;;;;4.33;2.33;;;;;29.15;30.80;101854.00;6304270;22;45272;-75
2023/06/05 06:42:44;;;;;;;;;2.00;2.00;;;;;29.15;30.49;101855.84;6304234;22;45307;-74
2023/06/05 06:45:10;;;;;;;;;2.00;2.00;;;;;29.13;30.45;101856.06;6302310;22;47066;-74
2023/06/05 06:47:35;;;;;;;;;2.00;2.00;;;;;29.15;30.17;101858.53;6304274;22;45359;-74
2023/06/05 06:50:01;;;;;;;;;5.00;3.00;;;;;29.05;30.63;101841.00;6302058;22;45284;-74
2023/06/05 06:52:26;;;;;;;;;2.00;2.00;;;;;29.09;30.22;101860.19;6304025;22;45416;-74
2023/06/05 06:54:52;;;;;;;;;3.00;3.00;;;;;29.12;30.26;101867.81;6302001;22;48241;-74
2023/06/05 06:57:17;;;;;;;;;3.67;2.00;;;;;29.12;30.65;101861.66;6303711;22;45261;-75
2023/06/05 06:59:43;;;;;;;;;1.67;1.67;;;;;29.00;30.08;101847.97;6304090;22;45355;-74
2023/06/05 07:02:13;;;;;;;;;3.00;2.00;;;;;29.14;30.42;101870.31;6304257;22;45502;-74
2023/06/05 07:04:40;;;;;;;;;1.33;1.33;;;;;29.14;30.77;101875.66;6303773;22;45739;-74
2023/06/05 07:07:08;;;;;;;;;1.33;1.33;;;;;29.13;30.31;101871.31;6303551;22;45332;-74
2023/06/05 07:09:33;;;;;;;;;3.67;3.00;;;;;29.03;30.15;101858.28;6302088;22;45345;-74
2023/06/05 07:12:04;;;;;;;;;2.67;1.00;;;;;29.14;30.09;101872.97;6303487;22;45234;-74
2023/06/05 07:14:29;;;;;;;;;3.33;3.33;;;;;29.13;30.44;101863.28;6303519;22;45343;-74
2023/06/05 07:16:56;;;;;;;;;2.67;1.67;;;;;29.15;30.40;101880.81;6303652;22;45284;-74
2023/06/05 07:19:21;;;;;;;;;2.33;2.33;;;;;29.07;30.19;101863.03;6303950;22;45290;-74
2023/06/05 07:21:47;;;;;;;;;2.00;2.00;;;;;29.15;30.42;101871.94;6304034;22;45233;-74
2023/06/05 07:24:12;;;;;;;;;2.00;2.00;;;;;29.05;30.63;101849.03;6304075;22;46450;-74
2023/06/05 07:26:37;;;;;;;;;2.00;2.00;;;;;29.13;30.18;101860.59;6302961;22;45443;-74
2023/06/05 07:29:03;;;;;;;;;6.00;3.67;;;;;29.15;30.58;101871.94;6302077;22;45289;-74
2023/06/05 07:31:30;;;;;;;;;2.00;1.00;;;;;29.14;30.37;101871.13;6303834;22;45427;-74
2023/06/05 07:33:55;;;;;;;;;3.00;2.33;;;;;29.16;30.29;101876.28;6303132;22;45712;-74
2023/06/05 07:36:22;;;;;;;;;5.33;4.67;;;;;29.16;30.28;101878.97;6303361;22;45236;-74
2023/06/05 07:38:48;;;;;;;;;2.00;2.00;;;;;29.13;30.39;101874.81;6305146;22;45152;-74
2023/06/05 07:41:13;;;;;;;;;2.00;2.00;;;;;29.14;30.71;101875.66;6304002;22;45378;-74
2023/06/05 07:43:42;;;;;;;;;3.33;3.33;;;;;29.14;30.45;101884.53;6305235;22;46264;-74
2023/06/05 07:46:08;;;;;;;;;3.00;3.00;;;;;29.01;30.34;101850.47;6305117;22;45357;-74
2023/06/05 07:48:35;;;;;;;;;2.33;2.33;;;;;29.15;30.06;101874.63;6305123;22;45226;-74
2023/06/05 07:51:00;;;;;;;;;3.33;3.33;;;;;29.19;30.49;101881.22;6305023;22;45476;-75
2023/06/05 07:53:26;;;;;;;;;4.33;3.00;;;;;29.17;30.49;101878.75;6304474;22;46568;-72
2023/06/05 07:55:52;;;;;;;;;4.00;4.00;;;;;29.07;30.47;101865.72;6304150;22;49041;-72
2023/06/05 07:58:18;;;;;;;;;1.33;1.33;;;;;29.14;30.18;101876.50;6305391;22;45280;-72
2023/06/05 08:00:47;;;;;;;;;5.00;2.33;;;;;29.16;30.29;101877.09;6304854;22;45334;-73
2023/06/05 08:03:19;;;;;;;;;3.67;3.00;;;;;29.16;30.36;101873.59;6304724;22;46225;-72
2023/06/05 08:05:48;;;;;;;;;3.67;3.67;;;;;28.96;30.58;101835.00;6304727;22;45315;-73
2023/06/05 08:08:13;;;;;;;;;3.00;3.00;;;;;29.20;30.49;101864.09;6305470;22;45330;-72
2023/06/05 08:10:40;;;;;;;;;4.00;2.67;;;;;29.17;30.29;101868.03;6304807;22;45488;-74
2023/06/05 08:13:05;;;;;;;;;4.67;3.00;;;;;29.16;30.56;101857.53;6304694;22;45328;-74
2023/06/05 08:15:30;;;;;;;;;2.33;2.33;;;;;29.11;30.47;101855.47;6304798;22;45351;-74
2023/06/05 08:17:56;;;;;;;;;2.00;2.00;;;;;29.15;30.02;101862.03;6305127;22;45316;-72
2023/06/05 08:20:21;;;;;;;;;3.33;2.33;;;;;29.16;30.51;101858.34;6305343;22;45288;-72
2023/06/05 08:22:47;;;;;;;;;3.33;3.33;;;;;29.14;30.09;101854.22;6304734;22;46525;-74
2023/06/05 08:25:12;;;;;;;;;3.33;1.67;;;;;29.18;30.42;101858.97;6304453;22;45270;-74
2023/06/05 08:27:37;;;;;;;;;2.00;2.00;;;;;29.21;30.41;101868.44;6305539;22;45236;-75
2023/06/05 08:30:03;;;;;;;;;3.00;3.00;;;;;29.15;30.51;101856.69;6304957;22;45452;-74
2023/06/05 08:32:28;;;;;;;;;2.00;2.00;;;;;29.15;30.33;101851.31;6304602;22;47124;-74
2023/06/05 08:34:54;;;;;;;;;4.33;4.00;;;;;29.22;30.47;101858.56;6305078;22;45276;-75
2023/06/05 08:37:20;;;;;;;;;4.33;4.33;;;;;29.15;30.76;101847.81;6304971;22;45225;-75
2023/06/05 08:39:48;;;;;;;;;3.00;3.00;;;;;29.15;30.59;101845.13;6304440;22;45217;-74
2023/06/05 08:42:17;;;;;;;;;4.67;3.00;;;;;29.17;30.60;101851.94;6304671;22;45473;-74
2023/06/05 08:44:47;;;;;;;;;1.33;1.33;;;;;29.18;30.33;101842.06;6304639;22;45233;-74
2023/06/05 08:47:14;;;;;;;;;3.00;2.00;;;;;29.23;30.41;101842.25;6304630;22;45256;-74
2023/06/05 08:49:41;;;;;;;;;3.00;3.00;;;;;29.23;30.58;101849.47;6304147;22;45240;-75
2023/06/05 08:52:08;;;;;;;;;4.00;3.00;;;;;29.24;30.25;101840.41;6304530;22;46322;-75
2023/06/05 08:54:42;;;;;;;;;2.00;2.00;;;;;29.21;29.95;101838.13;6303979;22;45244;-74
2023/06/05 08:57:08;;;;;;;;;3.00;3.00;;;;;29.22;30.56;101840.63;6304774;22;45101;-74
2023/06/05 08:59:34;;;;;;;;;2.67;2.67;;;;;29.24;30.44;101849.28;6304685;22;45434;-74
2023/06/05 09:02:00;;;;;;;;;3.00;3.00;;;;;29.23;30.83;101838.75;6302912;22;47489;-74
2023/06/05 09:04:29;;;;;;;;;2.67;2.67;;;;;29.25;30.36;101839.41;6305001;22;45391;-75
2023/06/05 09:06:56;;;;;;;;;3.33;3.33;;;;;29.11;30.53;101817.13;6304246;22;45395;-72
2023/06/05 09:09:21;;;;;;;;;3.00;2.33;;;;;29.26;30.11;101843.72;6305167;22;45283;-73
2023/06/05 09:11:47;;;;;;;;;2.00;2.00;;;;;29.25;30.53;101848.22;6304315;22;46464;-72
2023/06/05 09:14:12;;;;;;;;;3.67;3.33;;;;;29.22;30.35;101832.59;6302750;22;45252;-72
2023/06/05 09:16:43;;;;;;;;;4.00;4.00;;;;;29.10;30.39;101813.59;6305132;22;45240;-72
2023/06/05 09:19:11;;;;;;;;;2.33;2.00;;;;;29.19;30.54;101830.31;6304558;22;45372;-72
2023/06/05 09:21:36;;;;;;;;;4.00;3.00;;;;;29.18;30.81;101829.50;6303908;22;45552;-72
2023/06/05 09:24:15;;;;;;;;;5.00;3.00;;;;;29.22;30.48;101827.22;6304708;22;45194;-74
2023/06/05 09:26:46;;;;;;;;;3.33;2.67;;;;;29.23;30.54;101836.91;6304634;22;45298;-74
2023/06/05 09:29:12;;;;;;;;;3.00;3.00;;;;;29.17;30.82;101821.66;6304470;22;45446;-75
2023/06/05 09:31:44;;;;;;;;;3.67;3.00;;;;;29.24;31.09;101833.22;6304660;22;45211;-74
2023/06/05 09:34:10;;;;;;;;;4.67;3.00;;;;;29.21;30.45;101838.13;6304419;22;45293;-74
2023/06/05 09:36:45;;;;;;;;;3.00;3.00;;;;;29.18;30.85;101825.97;6304029;22;45209;-74
2023/06/05 09:39:15;;;;;;;;;3.67;3.00;;;;;29.18;30.58;101823.31;6304956;22;45391;-74
2023/06/05 09:41:44;;;;;;;;;2.00;2.00;;;;;29.23;30.63;101833.41;6304355;22;46458;-74
2023/06/05 09:44:10;;;;;;;;;2.00;2.00;;;;;29.20;30.68;101828.47;6304278;22;45280;-74
2023/06/05 09:47:02;;;;;;;;;6.00;3.00;;;;;29.20;30.83;101828.47;6304308;22;45194;-75
2023/06/05 09:49:32;;;;;;;;;6.33;2.67;;;;;29.11;30.53;101814.44;6304280;22;45521;-74
2023/06/05 09:52:00;;;;;;;;;3.33;3.00;;;;;29.15;30.90;101834.41;6304108;22;45900;-74
2023/06/05 09:54:28;;;;;;;;;2.33;2.33;;;;;29.19;30.43;101830.31;6304090;22;45327;-74
2023/06/05 09:57:01;;;;;;;;;4.33;4.33;;;;;29.18;30.56;101840.22;6304492;22;45252;-74
2023/06/05 09:59:31;;;;;;;;;4.67;4.00;;;;;29.09;30.78;101825.38;6304453;22;45281;-75
2023/06/05 10:02:04;;;;;;;;;3.00;3.00;;;;;29.14;30.76;101828.25;6304647;22;45283;-75
2023/06/05 10:04:35;;;;;;;;;3.67;3.67;;;;;29.15;31.04;101821.03;6302687;22;45298;-74
2023/06/05 10:07:01;;;;;;;;;3.00;3.00;;;;;29.11;30.65;101809.09;6304119;22;45339;-75
2023/06/05 10:09:30;;;;;;;;;5.33;3.67;;;;;29.16;30.89;101828.03;6304332;22;45237;-75
2023/06/05 10:11:56;;;;;;;;;5.33;4.00;;;;;29.07;30.66;101827.38;6304048;22;46326;-74
2023/06/05 10:14:22;;;;;;;;;3.67;3.67;;;;;29.10;30.67;101829.69;6302368;22;45281;-75
2023/06/05 10:16:51;;;;;;;;;4.00;3.00;;;;;29.07;30.71;101824.69;6302834;22;45290;-74
2023/06/05 10:19:19;;;;;;;;;3.67;3.67;;;;;29.10;30.86;101826.19;6302206;22;45548;-74
2023/06/05 10:21:47;;;;;;;;;6.67;3.33;;;;;29.10;30.47;101831.53;6304023;22;47257;-74
2023/06/05 10:24:18;;;;;;;;;4.00;4.00;;;;;28.91;31.14;101809.88;6304646;22;45372;-74
2023/06/05 10:27:12;;;;;;;;;4.00;4.00;;;;;29.10;30.92;101828.84;6304868;22;45188;-74
2023/06/05 10:29:43;;;;;;;;;2.33;2.33;;;;;29.08;30.51;101831.72;6304086;22;45521;-73
2023/06/05 10:32:28;;;;;;;;;3.00;3.00;;;;;29.06;30.75;101829.25;6304521;22;46139;-74
2023/06/05 10:35:38;;;;;;;;;4.00;4.00;;;;;29.07;30.68;101822.03;6177610;23;45323;-74
2023/06/05 10:38:23;;;;;;;;;2.33;2.33;;;;;29.05;31.20;101816.03;6118424;23;45298;-74
2023/06/05 10:40:52;;;;;;;;;2.33;2.33;;;;;29.04;30.81;101820.56;6118651;23;45545;-74
2023/06/05 10:43:33;;;;;;;;;5.00;5.00;;;;;29.04;30.88;101811.75;6118459;23;47072;-73
2023/06/05 10:46:00;;;;;;;;;2.33;2.33;;;;;29.03;31.27;101818.94;6118784;23;45362;-74
2023/06/05 10:49:03;;;;;;;;;5.00;5.00;;;;;29.02;30.85;101808.41;6117975;23;45834;-73
2023/06/05 10:51:39;;;;;;;;;4.00;4.00;;;;;28.94;30.90;101807.59;6118749;23;45488;-74
2023/06/05 10:54:06;;;;;;;;;5.00;5.00;;;;;28.99;30.98;101814.22;6118861;23;45994;-74
2023/06/05 10:56:51;;;;;;;;;5.33;4.00;;;;;28.99;30.85;101803.50;6118495;23;45413;-74
2023/06/05 10:59:17;;;;;;;;;3.67;3.67;;;;;28.88;31.28;101778.13;6118471;23;45305;-74
2023/06/05 11:01:43;;;;;;;;;4.00;3.67;;;;;28.89;30.99;101788.63;6118813;23;45293;-74
2023/06/05 11:04:08;;;;;;;;;3.33;3.33;;;;;28.95;30.93;101803.06;6118106;23;46014;-74
2023/06/05 11:06:34;;;;;;;;;5.67;5.00;;;;;28.89;30.99;101787.81;6118966;23;45398;-74
2023/06/05 11:09:11;;;;;;;;;3.00;3.00;;;;;28.83;30.54;101778.75;6119287;23;45383;-74
2023/06/05 11:11:59;;;;;;;;;5.67;4.67;;;;;28.86;30.74;101778.31;6167953;22;45463;-74
2023/06/05 11:14:42;;;;;;;;;4.00;4.00;;;;;28.91;31.37;101775.06;6280731;22;46388;-73
2023/06/05 11:17:28;;;;;;;;;3.00;3.00;;;;;28.85;31.35;101780.19;6303661;22;45516;-74
2023/06/05 11:19:53;;;;;;;;;4.33;4.33;;;;;28.88;30.86;101770.09;6305333;22;45288;-74
2023/06/05 11:22:20;;;;;;;;;3.33;3.33;;;;;28.82;31.65;101767.22;6305434;22;45299;-74
2023/06/05 11:24:45;;;;;;;;;3.00;3.00;;;;;28.85;31.16;101772.16;6305160;22;47166;-74
2023/06/05 11:27:41;;;;;;;;;4.00;4.00;;;;;28.87;30.82;101777.31;6305299;22;45322;-74